createdAt,value
2018-01-28T00:00:06.534Z,23.97
2018-01-28T00:02:37.017Z,20.27
2018-01-28T00:05:05.519Z,18.60
2018-01-28T00:07:33.980Z,16.07
2018-01-28T00:10:02.660Z,20.53
2018-01-28T00:12:31.889Z,20.03
2018-01-28T00:15:01.190Z,20.20
2018-01-28T00:17:29.807Z,21.37
2018-01-28T00:19:58.235Z,14.50
2018-01-28T00:22:28.435Z,16.23
2018-01-28T00:24:57.762Z,13.10
2018-01-28T00:27:26.497Z,10.60
2018-01-28T00:29:54.906Z,17.57
2018-01-28T00:32:24.425Z,16.10
2018-01-28T00:34:52.842Z,21.33
2018-01-28T00:37:21.261Z,23.23
2018-01-28T00:39:52.344Z,15.37
2018-01-28T00:42:20.916Z,21.63
2018-01-28T00:44:49.325Z,19.00
2018-01-28T00:47:17.936Z,16.73
2018-01-28T00:49:46.367Z,11.93
2018-01-28T00:52:14.916Z,24.13
2018-01-28T00:54:44.710Z,13.70
2018-01-28T00:57:18.666Z,17.60
2018-01-28T00:59:52.514Z,19.80
2018-01-28T01:02:20.961Z,9.00
2018-01-28T01:04:49.367Z,15.10
2018-01-28T01:07:18.110Z,17.13
2018-01-28T01:09:46.531Z,6.07
2018-01-28T01:12:14.961Z,17.23
2018-01-28T01:14:43.868Z,11.13
2018-01-28T01:17:12.299Z,16.40
2018-01-28T01:19:40.743Z,15.20
2018-01-28T01:22:09.288Z,16.40
2018-01-28T01:24:38.479Z,15.07
2018-01-28T01:27:10.140Z,18.93
2018-01-28T01:29:39.315Z,16.03
2018-01-28T01:32:07.727Z,15.80
2018-01-28T01:34:36.235Z,27.73
2018-01-28T01:37:04.676Z,20.97
2018-01-28T01:39:34.710Z,12.67
2018-01-28T01:42:03.189Z,11.90
2018-01-28T01:44:32.386Z,14.30
2018-01-28T01:47:00.816Z,6.83
2018-01-28T01:49:35.489Z,11.63
2018-01-28T01:52:03.925Z,16.10
2018-01-28T01:54:32.353Z,13.67
2018-01-28T01:57:01.169Z,15.43
2018-01-28T01:59:29.585Z,13.53
2018-01-28T02:01:58.904Z,18.90
2018-01-28T02:04:28.355Z,12.93
2018-01-28T02:06:56.764Z,13.97
2018-01-28T02:09:25.203Z,11.47
2018-01-28T02:11:53.686Z,14.67
2018-01-28T02:14:22.403Z,15.20
2018-01-28T02:16:50.827Z,11.67
2018-01-28T02:19:20.121Z,12.20
2018-01-28T02:21:49.334Z,10.77
2018-01-28T02:24:17.752Z,10.20
2018-01-28T02:26:47.152Z,16.77
2018-01-28T02:29:15.560Z,8.80
2018-01-28T02:31:44.119Z,12.20
2018-01-28T02:34:13.939Z,8.60
2018-01-28T02:36:42.369Z,11.30
2018-01-28T02:39:11.013Z,10.63
2018-01-28T02:41:39.577Z,4.23
2018-01-28T02:44:08.070Z,13.47
2018-01-28T02:46:36.483Z,8.70
2018-01-28T02:49:05.715Z,7.63
2018-01-28T02:51:35.146Z,7.37
2018-01-28T02:54:05.236Z,7.70
2018-01-28T02:56:33.791Z,8.33
2018-01-28T02:59:03.451Z,8.67
2018-01-28T03:01:31.867Z,7.80
2018-01-28T03:04:01.122Z,8.10
2018-01-28T03:06:31.112Z,6.90
2018-01-28T03:08:59.521Z,5.93
2018-01-28T03:11:28.185Z,7.30
2018-01-28T03:13:56.585Z,15.00
2018-01-28T03:16:25.088Z,8.60
2018-01-28T03:18:53.619Z,8.10
2018-01-28T03:21:22.055Z,6.33
2018-01-28T03:23:50.490Z,3.43
2018-01-28T03:26:19.089Z,5.90
2018-01-28T03:28:49.026Z,5.83
2018-01-28T03:31:18.259Z,3.40
2018-01-28T03:33:47.661Z,6.07
2018-01-28T03:36:16.854Z,7.23
2018-01-28T03:38:46.060Z,9.73
2018-01-28T03:41:15.270Z,5.27
2018-01-28T03:43:43.626Z,4.30
2018-01-28T03:46:12.731Z,6.60
2018-01-28T03:48:42.280Z,5.93
2018-01-28T03:51:10.615Z,5.90
2018-01-28T03:53:39.726Z,7.10
2018-01-28T03:56:09.646Z,7.07
2018-01-28T03:58:37.983Z,4.43
2018-01-28T04:01:06.712Z,12.53
2018-01-28T04:03:35.091Z,9.60
2018-01-28T04:06:03.489Z,15.67
2018-01-28T04:08:31.836Z,7.37
2018-01-28T04:11:00.270Z,10.80
2018-01-28T04:13:28.584Z,8.50
2018-01-28T04:15:57.656Z,7.70
2018-01-28T04:18:26.967Z,4.50
2018-01-28T04:20:56.073Z,7.07
2018-01-28T04:23:25.186Z,4.97
2018-01-28T04:25:53.803Z,7.07
2018-01-28T04:28:22.141Z,9.13
2018-01-28T04:30:50.500Z,9.43
2018-01-28T04:33:19.853Z,5.10
2018-01-28T04:35:48.240Z,6.73
2018-01-28T04:38:16.649Z,10.50
2018-01-28T04:40:45.033Z,10.13
2018-01-28T04:43:14.198Z,9.00
2018-01-28T04:45:43.265Z,7.77
2018-01-28T04:48:11.701Z,5.80
2018-01-28T04:50:40.053Z,6.23
2018-01-28T04:53:08.391Z,6.20
2018-01-28T04:55:36.776Z,8.70
2018-01-28T04:58:05.148Z,8.10
2018-01-28T05:00:38.413Z,10.73
2018-01-28T05:03:08.039Z,6.10
2018-01-28T05:05:36.418Z,4.93
2018-01-28T05:08:06.472Z,2.10
2018-01-28T05:10:34.814Z,6.10
2018-01-28T05:13:03.242Z,7.50
2018-01-28T05:15:32.403Z,9.13
2018-01-28T05:18:00.790Z,7.90
2018-01-28T05:20:29.554Z,9.93
2018-01-28T05:22:58.204Z,5.73
2018-01-28T05:25:26.549Z,7.23
2018-01-28T05:27:54.900Z,6.60
2018-01-28T05:30:23.512Z,15.30
2018-01-28T05:32:54.130Z,10.47
2018-01-28T05:35:22.475Z,6.30
2018-01-28T05:37:51.820Z,15.13
2018-01-28T05:40:20.175Z,6.60
2018-01-28T05:42:48.511Z,9.50
2018-01-28T05:45:17.084Z,6.43
2018-01-28T05:47:45.433Z,5.47
2018-01-28T05:50:13.780Z,8.70
2018-01-28T05:52:42.170Z,5.57
2018-01-28T05:55:10.506Z,6.87
2018-01-28T05:57:39.653Z,7.97
2018-01-28T06:00:08.357Z,8.73
2018-01-28T06:02:36.726Z,7.63
2018-01-28T06:05:05.392Z,4.67
2018-01-28T06:07:33.776Z,8.07
2018-01-28T06:10:02.873Z,6.87
2018-01-28T06:12:31.245Z,8.70
2018-01-28T06:14:59.727Z,6.30
2018-01-28T06:17:28.068Z,5.37
2018-01-28T06:19:56.426Z,4.00
2018-01-28T06:22:25.968Z,8.00
2018-01-28T06:24:55.102Z,6.13
2018-01-28T06:27:23.447Z,5.70
2018-01-28T06:29:52.599Z,6.53
2018-01-28T06:32:20.958Z,13.23
2018-01-28T06:34:50.097Z,6.70
2018-01-28T06:37:18.615Z,5.60
2018-01-28T06:39:46.958Z,4.27
2018-01-28T06:42:15.298Z,7.17
2018-01-28T06:44:43.665Z,7.23
2018-01-28T06:47:14.590Z,6.77
2018-01-28T06:49:42.925Z,8.87
2018-01-28T06:52:11.480Z,4.47
2018-01-28T06:54:39.906Z,5.33
2018-01-28T06:57:08.236Z,6.00
2018-01-28T06:59:36.609Z,5.87
2018-01-28T07:02:04.949Z,3.00
2018-01-28T07:04:33.295Z,5.43
2018-01-28T07:07:01.955Z,4.33
2018-01-28T07:09:30.327Z,4.87
2018-01-28T07:12:00.912Z,4.00
2018-01-28T07:14:30.065Z,6.83
2018-01-28T07:16:58.429Z,4.00
2018-01-28T07:19:26.769Z,8.20
2018-01-28T07:21:56.221Z,7.87
2018-01-28T07:24:25.441Z,9.00
2018-01-28T07:26:53.801Z,5.97
2018-01-28T07:29:22.488Z,11.37
2018-01-28T07:31:51.613Z,7.80
2018-01-28T07:34:20.001Z,9.83
2018-01-28T07:36:49.193Z,3.90
2018-01-28T07:39:17.538Z,3.00
2018-01-28T07:41:45.893Z,7.80
2018-01-28T07:44:14.277Z,7.63
2018-01-28T07:46:42.627Z,5.33
2018-01-28T07:49:12.677Z,4.83
2018-01-28T07:51:41.162Z,2.20
2018-01-28T07:54:09.579Z,4.10
2018-01-28T07:56:37.914Z,3.57
2018-01-28T07:59:06.297Z,5.20
2018-01-28T08:01:36.227Z,7.27
2018-01-28T08:04:04.585Z,2.03
2018-01-28T08:06:33.109Z,3.73
2018-01-28T08:09:01.601Z,6.60
2018-01-28T08:14:44.432Z,5.00
2018-01-28T08:17:12.912Z,3.53
2018-01-28T08:19:42.035Z,4.97
2018-01-28T08:22:11.180Z,4.20
2018-01-28T08:24:39.704Z,2.43
2018-01-28T08:27:20.556Z,1.70
2018-01-28T08:29:49.224Z,3.10
2018-01-28T08:32:19.135Z,4.57
2018-01-28T08:34:47.481Z,4.23
2018-01-28T08:37:16.008Z,7.10
2018-01-28T08:39:44.386Z,2.63
2018-01-28T08:42:12.732Z,2.80
2018-01-28T08:44:42.044Z,5.37
2018-01-28T08:47:10.379Z,8.07
2018-01-28T08:49:40.957Z,3.33
2018-01-28T08:52:09.525Z,2.90
2018-01-28T08:54:37.934Z,3.07
2018-01-28T08:57:06.552Z,3.67
2018-01-28T08:59:35.785Z,4.17
2018-01-28T09:02:05.638Z,3.57
2018-01-28T09:04:34.002Z,2.47
2018-01-28T09:07:02.580Z,3.37
2018-01-28T09:09:32.048Z,5.20
2018-01-28T09:12:00.405Z,5.57
2018-01-28T09:14:31.191Z,3.10
2018-01-28T09:16:59.565Z,3.20
2018-01-28T09:19:27.899Z,3.93
2018-01-28T09:21:57.452Z,4.40
2018-01-28T09:24:25.808Z,6.47
2018-01-28T09:26:54.920Z,4.33
2018-01-28T09:29:23.383Z,5.33
2018-01-28T09:31:51.736Z,4.70
2018-01-28T09:34:21.654Z,2.60
2018-01-28T09:36:50.892Z,4.30
2018-01-28T09:39:19.242Z,5.70
2018-01-28T09:41:47.581Z,8.13
2018-01-28T09:44:16.330Z,5.83
2018-01-28T09:46:46.281Z,5.23
2018-01-28T09:49:14.645Z,5.00
2018-01-28T09:51:43.044Z,7.27
2018-01-28T09:54:11.408Z,11.00
2018-01-28T09:56:39.753Z,6.23
2018-01-28T09:59:09.132Z,9.20
2018-01-28T10:01:37.481Z,5.67
2018-01-28T10:04:05.841Z,4.10
2018-01-28T10:06:34.351Z,6.13
2018-01-28T10:09:03.536Z,2.80
2018-01-28T10:11:33.792Z,4.00
2018-01-28T10:14:02.416Z,5.27
2018-01-28T10:16:32.262Z,5.87
2018-01-28T10:19:01.366Z,3.63
2018-01-28T10:21:29.910Z,3.80
2018-01-28T10:23:58.930Z,4.40
2018-01-28T10:26:27.278Z,2.87
2018-01-28T10:28:57.398Z,4.63
2018-01-28T10:31:25.794Z,3.53
2018-01-28T10:33:54.151Z,2.90
2018-01-28T10:36:22.828Z,4.17
2018-01-28T10:38:52.014Z,3.90
2018-01-28T10:41:21.103Z,6.53
2018-01-28T10:43:49.629Z,5.10
2018-01-28T10:46:17.984Z,2.40
2018-01-28T10:48:48.580Z,6.33
2018-01-28T10:51:17.151Z,5.87
2018-01-28T10:53:46.315Z,4.80
2018-01-28T10:56:14.693Z,8.90
2018-01-28T10:58:43.165Z,4.00
2018-01-28T11:01:11.563Z,4.40
2018-01-28T11:03:39.912Z,6.60
2018-01-28T11:06:08.704Z,2.97
2018-01-28T11:08:37.053Z,3.13
2018-01-28T11:11:05.394Z,6.10
2018-01-28T11:13:37.419Z,4.07
2018-01-28T11:16:05.778Z,2.93
2018-01-28T11:18:34.898Z,4.00
2018-01-28T11:21:03.281Z,5.73
2018-01-28T11:23:31.641Z,3.53
2018-01-28T11:26:00.816Z,5.20
2018-01-28T11:28:29.259Z,2.70
2018-01-28T11:30:57.615Z,28.27
2018-01-28T11:33:25.981Z,4.97
2018-01-28T11:35:55.232Z,4.83
2018-01-28T11:38:24.355Z,4.23
2018-01-28T11:40:52.708Z,3.17
2018-01-28T11:43:21.953Z,4.33
2018-01-28T11:45:50.304Z,1.80
2018-01-28T11:48:19.420Z,4.67
2018-01-28T11:50:50.436Z,4.20
2018-01-28T11:53:18.795Z,7.47
2018-01-28T11:55:47.902Z,4.63
2018-01-28T11:58:17.073Z,3.90
2018-01-28T12:00:45.411Z,7.43
2018-01-28T12:03:14.581Z,2.70
2018-01-28T12:05:43.071Z,3.27
2018-01-28T12:08:12.190Z,1.80
2018-01-28T12:10:40.547Z,4.63
2018-01-28T12:13:09.166Z,1.37
2018-01-28T12:15:37.991Z,1.83
2018-01-28T12:18:07.223Z,5.60
2018-01-28T12:20:35.616Z,5.83
2018-01-28T12:23:03.976Z,3.30
2018-01-28T12:25:32.336Z,3.30
2018-01-28T12:28:03.896Z,4.27
2018-01-28T12:30:32.240Z,2.93
2018-01-28T12:33:00.644Z,2.60
2018-01-28T12:35:30.076Z,5.13
2018-01-28T12:37:58.480Z,1.33
2018-01-28T12:40:27.854Z,1.97
2018-01-28T12:42:56.272Z,1.47
2018-01-28T12:45:25.352Z,1.67
2018-01-28T12:47:53.709Z,1.57
2018-01-28T12:50:22.099Z,3.60
2018-01-28T12:52:50.451Z,6.03
2018-01-28T12:55:18.788Z,2.50
2018-01-28T12:57:47.202Z,2.00
2018-01-28T13:00:15.563Z,4.00
2018-01-28T13:02:44.693Z,1.57
2018-01-28T13:05:13.262Z,2.17
2018-01-28T13:07:41.663Z,1.83
2018-01-28T13:10:10.022Z,1.20
2018-01-28T13:12:38.406Z,2.97
2018-01-28T13:15:06.747Z,2.77
2018-01-28T13:17:35.447Z,2.43
2018-01-28T13:20:04.838Z,1.63
2018-01-28T13:22:33.228Z,1.83
2018-01-28T13:25:02.346Z,3.00
2018-01-28T13:27:30.965Z,4.77
2018-01-28T13:30:02.581Z,3.73
2018-01-28T13:32:30.917Z,1.87
2018-01-28T13:34:59.476Z,2.53
2018-01-28T13:37:27.826Z,4.43
2018-01-28T13:39:56.277Z,1.07
2018-01-28T13:42:24.717Z,10.70
2018-01-28T13:44:53.124Z,4.80
2018-01-28T13:47:21.528Z,2.17
2018-01-28T13:49:50.763Z,2.30
2018-01-28T13:52:19.115Z,0.50
2018-01-28T13:54:49.129Z,4.90
2018-01-28T13:57:17.792Z,2.40
2018-01-28T13:59:46.908Z,2.07
2018-01-28T14:02:15.286Z,2.70
2018-01-28T14:04:43.773Z,1.90
2018-01-28T14:07:12.119Z,1.50
2018-01-28T14:09:40.468Z,5.70
2018-01-28T14:12:10.715Z,2.50
2018-01-28T14:14:39.076Z,7.60
2018-01-28T14:17:07.458Z,2.60
2018-01-28T14:19:36.408Z,2.00
2018-01-28T14:22:04.736Z,4.00
2018-01-28T14:24:33.087Z,1.37
2018-01-28T14:27:01.694Z,3.60
2018-01-28T14:29:30.055Z,1.33
2018-01-28T14:31:59.216Z,5.00
2018-01-28T14:34:27.696Z,3.93
2018-01-28T14:36:57.504Z,1.77
2018-01-28T14:39:25.848Z,3.23
2018-01-28T14:41:54.395Z,2.70
2018-01-28T14:44:23.591Z,1.60
2018-01-28T14:46:51.931Z,1.83
2018-01-28T14:49:21.251Z,4.87
2018-01-28T14:51:49.656Z,1.90
2018-01-28T14:54:18.007Z,1.23
2018-01-28T14:56:46.535Z,1.07
2018-01-28T14:59:14.872Z,2.10
2018-01-28T15:01:43.207Z,4.40
2018-01-28T15:04:11.628Z,0.80
2018-01-28T15:06:39.964Z,2.23
2018-01-28T15:09:09.097Z,1.20
2018-01-28T15:11:37.570Z,1.17
2018-01-28T15:14:07.427Z,3.07
2018-01-28T15:16:35.781Z,1.77
2018-01-28T15:19:04.382Z,1.93
2018-01-28T15:21:33.026Z,2.50
2018-01-28T15:24:01.377Z,2.80
2018-01-28T15:26:30.648Z,2.10
2018-01-28T15:28:58.989Z,0.70
2018-01-28T15:31:27.335Z,2.90
2018-01-28T15:33:58.043Z,2.40
2018-01-28T15:36:27.313Z,0.70
2018-01-28T15:38:56.431Z,2.30
2018-01-28T15:41:24.927Z,1.27
2018-01-28T15:43:53.270Z,1.90
2018-01-28T15:46:21.787Z,3.07
2018-01-28T15:48:50.151Z,2.90
2018-01-28T15:51:19.410Z,5.87
2018-01-28T15:53:47.774Z,4.03
2018-01-28T15:56:17.225Z,5.57
2018-01-28T15:58:46.330Z,2.83
2018-01-28T16:01:14.677Z,1.20
2018-01-28T16:03:43.391Z,2.80
2018-01-28T16:06:11.753Z,4.57
2018-01-28T16:08:40.100Z,3.70
2018-01-28T16:11:09.753Z,2.70
2018-01-28T16:13:38.101Z,2.47
2018-01-28T16:16:07.178Z,2.40
2018-01-28T16:18:36.333Z,2.20
2018-01-28T16:21:04.677Z,3.43
2018-01-28T16:23:33.336Z,2.23
2018-01-28T16:26:02.691Z,2.00
2018-01-28T16:28:31.771Z,3.50
2018-01-28T16:31:00.131Z,1.27
2018-01-28T16:33:28.676Z,1.70
2018-01-28T16:35:57.828Z,2.80
2018-01-28T16:38:26.172Z,1.53
2018-01-28T16:40:56.888Z,4.00
2018-01-28T16:43:26.039Z,1.70
2018-01-28T16:45:55.148Z,2.03
2018-01-28T16:48:24.627Z,2.67
2018-01-28T16:50:52.975Z,2.30
2018-01-28T16:53:25.212Z,5.03
2018-01-28T16:55:55.657Z,3.83
2018-01-28T16:58:24.788Z,2.33
2018-01-28T17:00:53.420Z,1.30
2018-01-28T17:03:21.766Z,2.00
2018-01-28T17:05:50.106Z,5.50
2018-01-28T17:08:19.251Z,3.57
2018-01-28T17:10:48.454Z,2.37
2018-01-28T17:13:16.826Z,2.27
2018-01-28T17:15:45.425Z,2.87
2018-01-28T17:18:13.754Z,3.80
2018-01-28T17:20:42.098Z,2.93
2018-01-28T17:23:10.614Z,4.53
2018-01-28T17:25:39.310Z,2.77
2018-01-28T17:28:08.422Z,2.40
2018-01-28T17:30:36.951Z,1.73
2018-01-28T17:33:05.318Z,1.60
2018-01-28T17:35:40.206Z,2.10
2018-01-28T17:38:08.584Z,2.60
2018-01-28T17:40:36.983Z,2.10
2018-01-28T17:43:05.492Z,1.97
2018-01-28T17:45:33.862Z,5.03
2018-01-28T17:48:05.297Z,5.80
2018-01-28T17:50:33.965Z,3.03
2018-01-28T17:53:02.318Z,3.30
2018-01-28T17:55:30.667Z,3.30
2018-01-28T17:57:59.054Z,5.30
2018-01-28T18:00:28.200Z,2.57
2018-01-28T18:02:56.546Z,2.03
2018-01-28T18:05:24.927Z,6.70
2018-01-28T18:07:53.315Z,1.10
2018-01-28T18:10:21.655Z,1.80
2018-01-28T18:12:51.742Z,9.17
2018-01-28T18:15:20.093Z,2.40
2018-01-28T18:17:48.441Z,5.53
2018-01-28T18:20:17.594Z,3.03
2018-01-28T18:22:45.938Z,3.10
2018-01-28T18:25:14.295Z,3.20
2018-01-28T18:27:43.725Z,4.33
2018-01-28T18:30:12.339Z,5.80
2018-01-28T18:32:41.496Z,4.27
2018-01-28T18:35:09.874Z,4.40
2018-01-28T18:37:39.888Z,3.53
2018-01-28T18:40:08.241Z,4.07
2018-01-28T18:42:37.486Z,5.60
2018-01-28T18:45:05.989Z,0.80
2018-01-28T18:47:34.368Z,8.10
2018-01-28T18:50:03.040Z,2.30
2018-01-28T18:52:31.383Z,4.60
2018-01-28T18:55:00.524Z,6.73
2018-01-28T18:57:29.110Z,2.70
2018-01-28T18:59:57.480Z,4.37
2018-01-28T19:02:26.697Z,5.00
2018-01-28T19:04:55.166Z,3.70
2018-01-28T19:07:23.525Z,11.33
2018-01-28T19:09:51.857Z,2.17
2018-01-28T19:12:20.336Z,2.83
2018-01-28T19:14:49.453Z,2.33
2018-01-28T19:17:18.562Z,2.53
2018-01-28T19:19:47.281Z,4.80
2018-01-28T19:22:15.624Z,2.60
2018-01-28T19:24:43.973Z,4.43
2018-01-28T19:27:14.901Z,4.47
2018-01-28T19:29:43.329Z,5.67
2018-01-28T19:32:11.701Z,4.30
2018-01-28T19:34:40.382Z,4.63
2018-01-28T19:37:08.726Z,2.57
2018-01-28T19:39:37.107Z,3.47
2018-01-28T19:42:05.853Z,4.40
2018-01-28T19:44:34.237Z,4.93
2018-01-28T19:47:02.570Z,5.00
2018-01-28T19:49:31.744Z,2.70
2018-01-28T19:52:02.555Z,1.40
2018-01-28T19:54:30.892Z,8.17
2018-01-28T19:56:59.482Z,2.70
2018-01-28T19:59:27.839Z,2.77
2018-01-28T20:01:56.187Z,5.53
2018-01-28T20:04:25.180Z,2.80
2018-01-28T20:06:54.296Z,3.77
2018-01-28T20:09:22.696Z,3.60
2018-01-28T20:11:51.157Z,6.60
2018-01-28T20:14:20.270Z,7.90
2018-01-28T20:16:49.391Z,11.40
2018-01-28T20:19:17.788Z,5.40
2018-01-28T20:21:46.134Z,7.40
2018-01-28T20:24:14.481Z,6.30
2018-01-28T20:26:43.625Z,4.40
2018-01-28T20:29:12.002Z,3.50
2018-01-28T20:31:40.683Z,12.80
2018-01-28T20:34:09.387Z,14.60
2018-01-28T20:36:37.733Z,4.73
2018-01-28T20:39:06.150Z,9.07
2018-01-28T20:41:34.797Z,7.70
2018-01-28T20:44:03.153Z,4.30
2018-01-28T20:46:32.278Z,8.07
2018-01-28T20:49:00.736Z,7.27
2018-01-28T20:51:29.856Z,4.97
2018-01-28T20:53:59.712Z,6.70
2018-01-28T20:56:28.152Z,5.87
2018-01-28T20:58:56.507Z,7.30
2018-01-28T21:01:25.630Z,12.50
2018-01-28T21:03:54.013Z,6.87
2018-01-28T21:06:22.590Z,6.83
2018-01-28T21:08:50.972Z,6.90
2018-01-28T21:11:19.353Z,3.90
2018-01-28T21:13:47.713Z,4.73
2018-01-28T21:16:16.105Z,7.23
2018-01-28T21:18:46.153Z,6.83
2018-01-28T21:21:14.500Z,6.73
2018-01-28T21:23:42.864Z,6.90
2018-01-28T21:26:11.619Z,5.20
2018-01-28T21:28:40.029Z,8.73
2018-01-28T21:31:08.455Z,5.83
2018-01-28T21:33:36.913Z,10.27
2018-01-28T21:36:05.263Z,5.27
2018-01-28T21:38:33.623Z,11.70
2018-01-28T21:41:02.167Z,5.83
2018-01-28T21:43:30.531Z,14.03
2018-01-28T21:45:58.881Z,8.37
2018-01-28T21:48:27.270Z,7.83
2018-01-28T21:50:55.622Z,5.50
2018-01-28T21:53:24.741Z,5.10
2018-01-28T21:55:53.365Z,11.87
2018-01-28T21:58:21.712Z,4.87
2018-01-28T22:00:50.071Z,7.07
2018-01-28T22:03:18.449Z,12.43
2018-01-28T22:05:46.786Z,11.10
2018-01-28T22:08:15.885Z,9.07
2018-01-28T22:10:44.361Z,14.90
2018-01-28T22:13:12.720Z,4.90
2018-01-28T22:15:41.099Z,4.00
2018-01-28T22:18:09.681Z,7.10
2018-01-28T22:20:39.166Z,5.63
2018-01-28T22:23:07.522Z,9.17
2018-01-28T22:25:36.745Z,5.90
2018-01-28T22:28:05.086Z,5.10
2018-01-28T22:30:33.432Z,7.60
2018-01-28T22:33:02.226Z,9.63
2018-01-28T22:35:30.725Z,7.10
2018-01-28T22:37:59.072Z,9.33
2018-01-28T22:40:27.608Z,2.70
2018-01-28T22:42:56.724Z,3.50
2018-01-28T22:45:26.979Z,3.10
2018-01-28T22:47:55.557Z,6.20
2018-01-28T22:50:23.908Z,6.53
2018-01-28T22:52:52.249Z,3.20
2018-01-28T22:55:20.643Z,4.70
2018-01-28T22:57:50.558Z,5.77
2018-01-28T23:00:19.678Z,2.43
2018-01-28T23:02:48.127Z,4.10
2018-01-28T23:05:17.244Z,4.30
2018-01-28T23:07:45.660Z,2.10
2018-01-28T23:10:14.360Z,6.70
2018-01-28T23:12:42.707Z,2.80
2018-01-28T23:15:11.833Z,6.10
2018-01-28T23:17:40.221Z,1.60
2018-01-28T23:20:08.573Z,3.93
2018-01-28T23:22:39.206Z,2.83
2018-01-28T23:25:07.631Z,5.27
2018-01-28T23:27:36.737Z,2.60
2018-01-28T23:30:05.162Z,5.17
2018-01-28T23:32:34.056Z,5.17
2018-01-28T23:35:02.697Z,5.20
2018-01-28T23:37:31.163Z,3.27
2018-01-28T23:40:00.506Z,4.97
2018-01-28T23:42:28.859Z,5.03
2018-01-28T23:44:57.185Z,5.20
2018-01-28T23:47:26.573Z,11.47
2018-01-28T23:49:54.905Z,2.50
2018-01-28T23:52:24.006Z,3.63
2018-01-28T23:54:52.470Z,3.27
2018-01-28T23:57:21.593Z,4.13
2018-01-28T23:59:51.752Z,5.03
